Time;durP1;ratioP1;P1;durP2;ratioP2;P2;SDS_P1;SDS_P2;PMS_P1;PMS_P2;Temp;Humidity;BMP_temperature;BMP_pressure;BME280_temperature;BME280_humidity;BME280_pressure;Samples;Min_cycle;Max_cycle;Signal;HPM_P1;HPM_P2
2022/05/12 00:00:02;;;;;;;2.45;1.23;;;11.50;99.90;;;;;;5097929;28;20510;-71
2022/05/12 00:02:27;;;;;;;4.45;1.33;;;11.50;99.90;;;;;;5085456;28;20051;-71
2022/05/12 00:04:55;;;;;;;3.42;1.15;;;11.50;99.90;;;;;;5074207;28;20231;-70
2022/05/12 00:07:21;;;;;;;3.88;1.33;;;11.50;99.90;;;;;;5088733;28;20051;-71
2022/05/12 00:09:46;;;;;;;5.88;1.70;;;11.50;99.90;;;;;;5083101;28;20060;-71
2022/05/12 00:12:12;;;;;;;5.03;1.58;;;11.50;99.90;;;;;;5089345;28;20383;-71
2022/05/12 00:14:38;;;;;;;8.18;2.25;;;11.50;99.90;;;;;;5080964;28;20503;-70
2022/05/12 00:17:04;;;;;;;4.88;1.88;;;11.50;99.90;;;;;;5090111;28;20502;-71
2022/05/12 00:19:31;;;;;;;4.75;1.52;;;11.50;99.90;;;;;;5097401;28;20048;-71
2022/05/12 00:21:57;;;;;;;3.83;1.65;;;11.50;99.90;;;;;;5088614;28;20044;-71
2022/05/12 00:24:23;;;;;;;8.10;2.13;;;11.60;99.90;;;;;;5067973;28;20048;-71
2022/05/12 00:26:49;;;;;;;5.40;1.80;;;11.60;99.90;;;;;;5061495;28;20044;-71
2022/05/12 00:29:14;;;;;;;5.00;1.60;;;11.60;99.90;;;;;;5051225;28;20059;-72
2022/05/12 00:31:43;;;;;;;4.20;1.80;;;11.60;99.90;;;;;;5073450;28;20040;-71
2022/05/12 00:34:10;;;;;;;4.50;1.73;;;11.60;99.90;;;;;;5090095;28;20043;-71
2022/05/12 00:36:36;;;;;;;5.30;1.80;;;11.60;99.90;;;;;;5060675;28;20041;-70
2022/05/12 00:39:03;;;;;;;4.80;1.60;;;11.60;99.90;;;;;;5067613;28;20094;-71
2022/05/12 00:41:29;;;;;;;5.82;2.03;;;11.60;99.90;;;;;;5051139;28;20089;-72
2022/05/12 00:44:02;;;;;;;10.20;2.53;;;11.50;99.90;;;;;;5050531;28;20565;-71
2022/05/12 00:46:33;;;;;;;6.10;1.60;;;11.50;99.90;;;;;;5068242;28;20460;-71
2022/05/12 00:49:27;;;;;;;4.72;1.70;;;11.40;99.90;;;;;;5067828;28;20041;-71
2022/05/12 00:52:06;;;;;;;4.00;1.33;;;11.40;99.90;;;;;;5077457;28;20052;-71
2022/05/12 00:55:04;;;;;;;6.60;1.20;;;11.30;99.90;;;;;;5067606;28;20080;-70
2022/05/12 00:57:40;;;;;;;7.18;1.77;;;11.20;99.90;;;;;;5067155;28;20087;-70
2022/05/12 01:00:11;;;;;;;3.20;1.40;;;11.20;99.90;;;;;;5074012;28;20036;-70
2022/05/12 01:02:39;;;;;;;4.30;1.20;;;11.10;99.90;;;;;;5088914;28;20509;-69
2022/05/12 01:05:06;;;;;;;5.10;1.60;;;11.10;99.90;;;;;;5084869;28;20047;-70
2022/05/12 01:07:32;;;;;;;5.07;1.80;;;11.10;99.90;;;;;;5079403;28;20509;-70
2022/05/12 01:10:00;;;;;;;6.85;1.45;;;11.00;99.90;;;;;;5087374;28;20066;-71
2022/05/12 01:12:26;;;;;;;3.40;0.90;;;10.90;99.90;;;;;;5087707;28;20101;-70
2022/05/12 01:14:52;;;;;;;5.70;1.35;;;10.90;99.90;;;;;;5088336;28;20286;-70
2022/05/12 01:17:19;;;;;;;5.15;1.70;;;10.90;99.90;;;;;;5068240;28;20040;-70
2022/05/12 01:19:45;;;;;;;5.85;1.55;;;10.90;99.90;;;;;;5081150;28;20390;-70
2022/05/12 01:22:30;;;;;;;6.53;1.50;;;10.90;99.90;;;;;;5070559;28;20059;-70
2022/05/12 01:24:56;;;;;;;4.63;1.17;;;10.90;99.90;;;;;;5083226;28;20455;-70
2022/05/12 01:27:23;;;;;;;3.83;1.10;;;10.80;99.90;;;;;;5086935;28;20051;-69
2022/05/12 01:29:57;;;;;;;3.00;1.15;;;10.80;99.90;;;;;;5098829;28;20122;-70
2022/05/12 01:32:26;;;;;;;3.53;1.30;;;10.70;99.90;;;;;;5087245;28;20180;-69
2022/05/12 01:34:53;;;;;;;3.88;1.50;;;10.60;99.90;;;;;;5082571;28;20042;-70
2022/05/12 01:37:19;;;;;;;5.82;1.52;;;10.60;99.90;;;;;;5087059;28;20066;-69
2022/05/12 01:39:45;;;;;;;7.07;1.20;;;10.60;99.90;;;;;;5080928;28;20101;-69
2022/05/12 01:42:12;;;;;;;4.72;1.30;;;10.50;99.90;;;;;;5086915;28;20051;-69
2022/05/12 01:44:40;;;;;;;4.65;1.23;;;10.50;99.90;;;;;;5079969;28;20563;-69
2022/05/12 01:47:07;;;;;;;3.47;1.33;;;10.50;99.90;;;;;;5087444;28;20039;-69
2022/05/12 01:49:33;;;;;;;6.40;1.67;;;10.40;99.90;;;;;;5087530;28;20040;-69
2022/05/12 01:52:01;;;;;;;4.25;1.63;;;10.30;99.90;;;;;;5083043;28;20055;-69
2022/05/12 01:54:28;;;;;;;5.85;1.42;;;10.30;99.90;;;;;;5086740;28;20050;-69
2022/05/12 01:56:54;;;;;;;3.33;1.38;;;10.30;99.90;;;;;;5065217;28;20135;-69
2022/05/12 01:59:20;;;;;;;5.35;1.48;;;10.20;99.90;;;;;;5073684;28;20051;-69
2022/05/12 02:01:47;;;;;;;6.07;1.33;;;10.20;99.90;;;;;;5086278;28;20737;-69
2022/05/12 02:04:14;;;;;;;1.05;0.90;;;10.20;99.90;;;;;;5103958;28;20040;-69
2022/05/12 02:06:42;;;;;;;3.95;1.20;;;10.10;99.90;;;;;;5074212;28;20044;-69
2022/05/12 02:09:08;;;;;;;1.00;0.88;;;10.10;99.90;;;;;;5050010;28;20052;-69
2022/05/12 02:11:34;;;;;;;2.95;1.27;;;10.10;99.90;;;;;;5067946;28;20060;-70
2022/05/12 02:14:01;;;;;;;4.65;1.60;;;10.10;99.90;;;;;;5029724;28;20490;-69
2022/05/12 02:16:27;;;;;;;3.25;1.20;;;10.10;99.90;;;;;;5049497;28;20081;-70
2022/05/12 02:18:53;;;;;;;5.85;1.27;;;10.10;99.90;;;;;;5085884;28;20068;-69
2022/05/12 02:21:20;;;;;;;5.53;1.35;;;10.10;99.90;;;;;;5069844;28;20044;-69
2022/05/12 02:23:46;;;;;;;6.80;1.40;;;10.10;99.90;;;;;;5087239;28;20040;-70
2022/05/12 02:26:12;;;;;;;1.30;0.93;;;10.00;99.90;;;;;;5084675;28;20046;-70
2022/05/12 02:28:38;;;;;;;8.65;1.40;;;10.00;99.90;;;;;;5061846;28;20036;-69
2022/05/12 02:31:04;;;;;;;4.93;1.30;;;9.90;99.90;;;;;;5085697;28;20044;-69
2022/05/12 02:33:30;;;;;;;6.95;1.17;;;9.90;99.90;;;;;;5095081;28;20068;-69
2022/05/12 02:35:56;;;;;;;3.60;1.10;;;9.90;99.90;;;;;;5085590;28;20048;-69
2022/05/12 02:38:22;;;;;;;1.65;1.00;;;9.90;99.90;;;;;;5092443;28;20079;-69
2022/05/12 02:40:47;;;;;;;5.30;0.90;;;9.90;99.90;;;;;;5059504;28;20056;-69
2022/05/12 02:43:26;;;;;;;3.75;0.85;;;9.90;99.90;;;;;;5033335;28;20102;-70
2022/05/12 02:45:56;;;;;;;3.72;1.20;;;9.90;99.90;;;;;;5045099;28;20044;-69
2022/05/12 02:48:24;;;;;;;5.45;1.30;;;9.90;99.90;;;;;;5056713;28;20039;-70
2022/05/12 02:50:50;;;;;;;4.85;1.10;;;9.90;99.90;;;;;;5079965;28;20040;-69
2022/05/12 02:53:16;;;;;;;5.30;1.38;;;9.90;99.90;;;;;;5085874;28;20040;-69
2022/05/12 02:55:43;;;;;;;2.30;1.17;;;9.90;99.90;;;;;;5087309;28;20436;-69
2022/05/12 02:58:09;;;;;;;3.78;1.42;;;9.80;99.90;;;;;;5086148;28;20063;-69
2022/05/12 03:00:35;;;;;;;3.42;1.30;;;9.90;99.90;;;;;;5078693;28;20383;-69
2022/05/12 03:03:01;;;;;;;6.60;1.38;;;9.80;99.90;;;;;;5084786;28;20088;-70
2022/05/12 03:05:27;;;;;;;11.82;1.80;;;9.90;99.90;;;;;;5086126;28;20131;-69
2022/05/12 03:07:53;;;;;;;4.65;1.40;;;9.80;99.90;;;;;;5084830;28;20048;-69
2022/05/12 03:10:20;;;;;;;5.47;1.70;;;9.80;99.90;;;;;;5085749;28;20132;-70
2022/05/12 03:12:46;;;;;;;5.07;1.10;;;9.80;99.90;;;;;;5059532;28;20048;-69
2022/05/12 03:15:12;;;;;;;4.13;1.25;;;9.90;99.90;;;;;;5064820;28;20048;-69
2022/05/12 03:17:39;;;;;;;7.07;1.83;;;9.90;99.90;;;;;;5058780;28;20360;-69
2022/05/12 03:20:09;;;;;;;3.10;1.30;;;9.90;99.90;;;;;;5075635;28;20055;-69
2022/05/12 03:22:35;;;;;;;;;;;9.80;99.90;;;;;;5062544;28;20630;-69
2022/05/12 03:25:02;;;;;;;7.65;1.95;;;9.90;99.90;;;;;;5068069;28;19920;-69
2022/05/12 03:27:29;;;;;;;8.63;1.65;;;9.80;99.90;;;;;;5068578;28;20055;-69
2022/05/12 03:29:55;;;;;;;4.00;1.10;;;9.90;99.90;;;;;;5085607;28;20236;-69
2022/05/12 03:32:21;;;;;;;7.82;1.20;;;9.90;99.90;;;;;;5084168;28;20203;-69
2022/05/12 03:34:47;;;;;;;3.55;1.50;;;9.90;99.90;;;;;;5079223;28;20040;-69
2022/05/12 03:37:13;;;;;;;7.25;1.67;;;9.80;99.90;;;;;;5067418;28;20047;-68
2022/05/12 03:39:39;;;;;;;7.80;1.95;;;9.90;99.90;;;;;;5079090;28;20055;-69
2022/05/12 03:42:10;;;;;;;8.10;1.50;;;9.80;99.90;;;;;;5083451;28;20035;-69
2022/05/12 03:44:50;;;;;;;3.78;1.17;;;9.90;99.90;;;;;;5062377;28;20048;-68
2022/05/12 03:47:22;;;;;;;4.72;1.60;;;9.80;99.90;;;;;;5084854;28;20413;-70
2022/05/12 03:49:50;;;;;;;6.82;2.05;;;9.90;99.90;;;;;;5062965;28;20410;-69
2022/05/12 03:52:17;;;;;;;7.55;1.63;;;9.80;99.90;;;;;;5084615;28;20089;-69
2022/05/12 03:54:43;;;;;;;5.75;1.25;;;9.90;99.90;;;;;;5078420;28;20809;-69
2022/05/12 03:57:10;;;;;;;10.15;1.73;;;9.90;99.90;;;;;;5084925;28;20063;-69
2022/05/12 03:59:38;;;;;;;6.80;1.73;;;9.90;99.90;;;;;;5077718;28;20044;-68
2022/05/12 04:02:08;;;;;;;8.40;1.98;;;9.90;99.90;;;;;;5047547;28;20044;-70
2022/05/12 04:04:34;;;;;;;9.30;1.70;;;9.90;99.90;;;;;;5057510;28;20491;-69
2022/05/12 04:07:00;;;;;;;12.20;1.95;;;10.00;99.90;;;;;;5064162;28;20045;-69
2022/05/12 04:09:27;;;;;;;5.70;1.42;;;10.00;99.90;;;;;;5064912;28;20139;-68
2022/05/12 04:11:53;;;;;;;8.77;1.98;;;10.10;99.90;;;;;;5069931;28;20063;-69
2022/05/12 04:14:19;;;;;;;8.25;2.10;;;10.10;99.90;;;;;;5084003;28;20501;-68
2022/05/12 04:16:45;;;;;;;7.75;1.65;;;10.10;99.90;;;;;;5095280;28;20505;-69
2022/05/12 04:19:14;;;;;;;6.85;1.80;;;10.00;99.90;;;;;;5084589;28;20043;-69
2022/05/12 04:21:40;;;;;;;14.15;2.40;;;10.10;99.90;;;;;;5094770;28;20051;-68
2022/05/12 04:24:08;;;;;;;11.50;2.03;;;10.10;99.90;;;;;;5080772;28;20040;-69
2022/05/12 04:26:35;;;;;;;9.38;2.45;;;10.20;99.90;;;;;;5040677;28;20131;-68
2022/05/12 04:29:02;;;;;;;8.23;2.15;;;10.20;99.90;;;;;;5063859;28;20045;-70
2022/05/12 04:31:28;;;;;;;9.40;2.08;;;10.20;99.90;;;;;;5053447;28;20044;-68
2022/05/12 04:36:40;;;;;;;9.45;2.15;;;10.30;99.90;;;;;;5095075;28;20473;-69
2022/05/12 04:39:06;;;;;;;9.73;2.00;;;10.30;99.90;;;;;;5084007;28;20036;-70
2022/05/12 04:41:32;;;;;;;14.45;2.90;;;10.40;99.90;;;;;;5093715;28;20036;-69
2022/05/12 04:43:59;;;;;;;18.25;3.00;;;10.40;99.90;;;;;;5083470;28;20040;-69
2022/05/12 04:46:26;;;;;;;10.63;2.80;;;10.50;99.90;;;;;;5084166;28;20059;-69
2022/05/12 04:48:52;;;;;;;10.05;2.10;;;10.60;99.90;;;;;;5096831;28;20089;-68
2022/05/12 04:51:19;;;;;;;16.27;2.60;;;10.60;99.90;;;;;;5083712;28;20182;-69
2022/05/12 04:53:45;;;;;;;14.07;2.42;;;10.70;99.90;;;;;;5096762;28;20051;-68
2022/05/12 04:56:11;;;;;;;13.93;2.85;;;10.70;99.90;;;;;;5087287;28;20052;-69
2022/05/12 04:58:37;;;;;;;9.73;2.70;;;10.80;99.90;;;;;;5098225;28;20566;-69
2022/05/12 05:01:04;;;;;;;22.75;3.45;;;10.80;99.90;;;;;;5088795;28;20628;-69
2022/05/12 05:03:32;;;;;;;11.85;2.80;;;10.90;99.90;;;;;;5079962;28;20147;-69
2022/05/12 05:05:58;;;;;;;9.57;2.85;;;10.90;99.90;;;;;;5089323;28;20070;-68
2022/05/12 05:08:25;;;;;;;9.95;2.80;;;11.00;99.90;;;;;;5083800;28;20056;-69
2022/05/12 05:10:53;;;;;;;16.85;3.22;;;11.00;99.90;;;;;;5062797;28;20616;-68
2022/05/12 05:13:21;;;;;;;8.40;2.63;;;11.10;99.90;;;;;;5068452;28;20277;-68
2022/05/12 05:15:48;;;;;;;16.88;3.33;;;11.10;99.90;;;;;;5074783;28;20079;-68
2022/05/12 05:18:16;;;;;;;15.05;4.03;;;11.20;99.90;;;;;;5088782;28;20115;-68
2022/05/12 05:20:43;;;;;;;10.80;2.92;;;11.20;99.90;;;;;;5081313;28;20109;-68
2022/05/12 05:23:10;;;;;;;13.75;3.45;;;11.30;99.90;;;;;;5070482;28;20289;-68
2022/05/12 05:25:36;;;;;;;8.35;2.88;;;11.30;99.90;;;;;;5079866;28;20066;-68
2022/05/12 05:28:01;;;;;;;13.70;3.00;;;11.40;99.90;;;;;;5087699;28;20478;-68
2022/05/12 05:30:27;;;;;;;12.68;3.17;;;11.40;99.90;;;;;;5087062;28;20051;-68
2022/05/12 05:32:54;;;;;;;8.60;2.58;;;11.40;99.90;;;;;;5088528;28;20033;-69
2022/05/12 05:35:20;;;;;;;10.75;2.90;;;11.50;99.90;;;;;;5085858;28;20044;-69
2022/05/12 05:37:48;;;;;;;11.90;3.17;;;11.60;99.90;;;;;;5081278;28;20048;-68
2022/05/12 05:40:16;;;;;;;19.88;3.65;;;11.80;99.90;;;;;;5087197;28;20059;-68
2022/05/12 05:42:44;;;;;;;12.50;3.72;;;11.90;99.90;;;;;;5097591;28;20123;-69
2022/05/12 05:45:12;;;;;;;11.70;3.22;;;12.00;99.90;;;;;;5088549;28;20561;-69
2022/05/12 05:47:39;;;;;;;12.38;2.85;;;11.90;99.90;;;;;;5095089;28;20083;-68
2022/05/12 05:50:09;;;;;;;11.57;3.28;;;11.90;99.90;;;;;;5087115;28;20048;-68
2022/05/12 05:55:19;;;;;;;11.70;3.00;;;12.00;99.90;;;;;;5103408;28;20489;-69
2022/05/12 05:57:45;;;;;;;17.15;3.70;;;12.00;99.90;;;;;;5088066;28;20052;-68
2022/05/12 06:00:12;;;;;;;17.42;3.78;;;12.10;99.90;;;;;;5084326;28;20513;-69
2022/05/12 06:02:39;;;;;;;11.95;3.50;;;12.10;99.90;;;;;;5063500;28;20048;-68
2022/05/12 06:05:06;;;;;;;14.35;3.38;;;12.20;99.90;;;;;;5069017;28;20213;-68
2022/05/12 06:07:34;;;;;;;18.27;3.60;;;12.30;99.90;;;;;;5078558;28;20040;-68
2022/05/12 06:10:01;;;;;;;12.77;3.63;;;12.30;99.90;;;;;;5086586;28;20047;-69
2022/05/12 06:12:27;;;;;;;10.45;3.28;;;12.40;99.90;;;;;;5069804;28;20501;-68
2022/05/12 06:14:53;;;;;;;10.60;3.03;;;12.40;99.90;;;;;;5069809;28;20498;-68
2022/05/12 06:17:19;;;;;;;8.75;2.97;;;12.50;99.90;;;;;;5087005;28;20044;-69
2022/05/12 06:19:45;;;;;;;9.07;2.53;;;12.60;99.90;;;;;;5081117;28;20052;-68
2022/05/12 06:22:11;;;;;;;11.73;2.97;;;12.70;99.90;;;;;;5085713;28;20055;-68
2022/05/12 06:24:38;;;;;;;8.63;2.47;;;12.80;99.90;;;;;;5079194;28;20044;-67
2022/05/12 06:27:04;;;;;;;12.70;3.00;;;13.00;99.90;;;;;;5086088;28;20052;-69
2022/05/12 06:29:33;;;;;;;19.65;3.13;;;13.10;99.90;;;;;;5087664;28;20094;-68
2022/05/12 06:32:01;;;;;;;11.77;2.55;;;13.20;99.90;;;;;;5097378;28;20847;-69
2022/05/12 06:34:27;;;;;;;8.93;2.88;;;13.20;99.90;;;;;;5082374;28;20541;-68
2022/05/12 06:36:56;;;;;;;11.80;2.88;;;13.30;99.90;;;;;;5055938;28;20079;-69
2022/05/12 06:39:22;;;;;;;7.10;2.37;;;13.40;99.90;;;;;;5085466;28;20062;-68
2022/05/12 06:41:47;;;;;;;6.68;1.92;;;13.50;99.90;;;;;;5064388;28;20048;-68
2022/05/12 06:44:14;;;;;;;14.20;2.88;;;13.80;99.90;;;;;;5085214;28;20135;-67
2022/05/12 06:46:40;;;;;;;10.13;2.25;;;14.10;99.90;;;;;;5079706;28;20106;-68
2022/05/12 06:49:06;;;;;;;10.10;2.60;;;14.30;99.90;;;;;;5085173;28;20048;-68
2022/05/12 06:51:33;;;;;;;14.73;2.35;;;14.70;99.90;;;;;;5077460;28;20043;-68
2022/05/12 06:53:59;;;;;;;12.30;3.20;;;14.90;99.90;;;;;;5082692;28;20044;-68
2022/05/12 06:56:25;;;;;;;11.40;2.20;;;15.00;99.90;;;;;;5083693;28;20062;-68
2022/05/12 06:58:51;;;;;;;6.95;2.10;;;15.10;99.90;;;;;;5078800;28;20048;-69
2022/05/12 07:01:17;;;;;;;7.35;1.80;;;15.10;99.90;;;;;;5082048;28;20044;-68
2022/05/12 07:03:43;;;;;;;11.25;2.53;;;15.10;99.90;;;;;;5076151;28;20032;-69
2022/05/12 07:06:09;;;;;;;11.75;2.40;;;15.20;99.90;;;;;;5080440;28;20535;-68
2022/05/12 07:08:41;;;;;;;5.55;1.77;;;15.30;99.90;;;;;;5086273;28;20048;-68
2022/05/12 07:11:10;;;;;;;14.60;2.17;;;15.60;99.90;;;;;;5086875;28;20414;-68
2022/05/12 07:13:36;;;;;;;3.60;1.50;;;15.90;96.20;;;;;;5086087;28;20554;-67
2022/05/12 07:16:03;;;;;;;7.85;2.05;;;16.00;92.40;;;;;;5097822;28;20118;-69
2022/05/12 07:18:30;;;;;;;9.57;1.92;;;15.90;88.10;;;;;;5076102;28;20056;-68
2022/05/12 07:26:36;;;;;;;8.23;1.88;;;16.20;84.80;;;;;;5092365;28;20123;-69
2022/05/12 07:29:07;;;;;;;8.15;1.55;;;16.20;73.50;;;;;;5082064;28;20059;-69
2022/05/12 07:31:33;;;;;;;11.55;2.53;;;16.20;85.10;;;;;;5085851;28;20502;-69
2022/05/12 07:34:00;;;;;;;10.13;2.00;;;16.20;78.90;;;;;;5064827;28;20044;-69
2022/05/12 07:36:36;;;;;;;6.38;1.40;;;16.20;84.70;;;;;;5095029;28;20323;-68
2022/05/12 07:39:02;;;;;;;9.45;1.77;;;16.50;85.70;;;;;;5084209;28;20044;-69
2022/05/12 07:41:28;;;;;;;8.77;1.70;;;16.70;75.10;;;;;;5067612;28;20174;-68
2022/05/12 07:43:54;;;;;;;12.88;2.00;;;16.80;65.50;;;;;;5085932;28;20142;-69
2022/05/12 07:46:23;;;;;;;5.05;1.10;;;16.50;67.60;;;;;;5100749;28;20047;-68
2022/05/12 07:48:49;;;;;;;5.93;1.50;;;16.50;68.10;;;;;;5079229;28;20378;-68
2022/05/12 07:51:17;;;;;;;7.60;1.75;;;16.60;75.70;;;;;;5084944;28;20100;-69
2022/05/12 07:53:46;;;;;;;7.60;1.83;;;16.80;61.50;;;;;;5062046;28;20059;-68
2022/05/12 07:56:12;;;;;;;3.88;1.40;;;16.90;66.60;;;;;;5084399;28;20124;-68
2022/05/12 07:58:38;;;;;;;6.20;1.90;;;17.30;65.70;;;;;;5085557;28;20165;-68
2022/05/12 08:01:05;;;;;;;9.90;1.67;;;17.70;60.60;;;;;;5081216;28;20493;-67
2022/05/12 08:03:31;;;;;;;8.27;1.60;;;17.90;55.20;;;;;;5076780;28;20465;-68
2022/05/12 08:05:59;;;;;;;6.70;1.67;;;18.10;51.20;;;;;;5085149;28;20094;-68
2022/05/12 08:08:25;;;;;;;4.97;1.70;;;18.30;48.70;;;;;;5071855;28;20137;-67
2022/05/12 08:10:51;;;;;;;8.40;1.38;;;18.50;48.10;;;;;;5076953;28;20087;-69
2022/05/12 08:13:17;;;;;;;4.53;1.50;;;18.10;35.60;;;;;;5084349;28;20823;-69
2022/05/12 08:15:44;;;;;;;8.60;1.85;;;17.30;35.40;;;;;;5074902;28;20505;-68
2022/05/12 08:18:11;;;;;;;4.78;1.85;;;16.90;54.60;;;;;;5081670;28;20089;-69
2022/05/12 08:20:38;;;;;;;11.80;1.90;;;16.90;55.40;;;;;;5074508;28;20118;-68
2022/05/12 08:23:05;;;;;;;10.60;1.60;;;17.00;49.40;;;;;;5081466;28;20059;-69
2022/05/12 08:25:30;;;;;;;6.00;1.60;;;17.00;58.80;;;;;;5073436;28;20438;-69
2022/05/12 08:27:56;;;;;;;8.85;1.48;;;17.00;59.80;;;;;;5068235;28;20086;-69
2022/05/12 08:30:22;;;;;;;7.28;2.13;;;17.40;56.50;;;;;;5086983;28;20181;-68
2022/05/12 08:32:48;;;;;;;8.50;1.85;;;17.60;50.40;;;;;;5081682;28;20130;-69
2022/05/12 08:35:14;;;;;;;8.23;1.85;;;17.80;51.90;;;;;;5087941;28;20122;-70
2022/05/12 08:37:40;;;;;;;14.77;1.95;;;17.90;50.40;;;;;;5088522;28;20046;-69
2022/05/12 08:40:11;;;;;;;3.60;1.30;;;17.60;36.30;;;;;;5084325;28;20111;-68
2022/05/12 08:42:47;;;;;;;9.07;1.70;;;17.50;41.60;;;;;;5080599;28;20117;-69
2022/05/12 08:45:17;;;;;;;7.97;1.45;;;17.70;45.70;;;;;;5086905;28;20067;-69
2022/05/12 08:47:46;;;;;;;5.47;1.30;;;18.10;38.10;;;;;;5080892;28;20082;-69
2022/05/12 08:50:21;;;;;;;8.32;1.42;;;18.40;37.30;;;;;;5087425;28;20039;-69
2022/05/12 08:52:57;;;;;;;7.35;1.45;;;18.40;27.60;;;;;;5064819;28;20197;-69
2022/05/12 08:55:30;;;;;;;6.47;1.40;;;18.40;26.10;;;;;;5087980;28;20052;-69
2022/05/12 08:58:22;;;;;;;7.28;1.60;;;18.10;24.80;;;;;;5088954;28;20056;-69
2022/05/12 09:00:47;;;;;;;3.38;0.90;;;18.00;25.60;;;;;;5052418;28;20059;-69
2022/05/12 09:03:39;;;;;;;4.70;1.17;;;18.00;24.60;;;;;;5085890;28;20052;-70
2022/05/12 09:06:13;;;;;;;3.42;1.15;;;17.70;24.30;;;;;;5067104;28;20040;-70
2022/05/12 09:09:02;;;;;;;7.05;0.73;;;17.40;27.50;;;;;;5089301;28;20405;-70
2022/05/12 09:11:43;;;;;;;5.65;1.30;;;17.20;27.10;;;;;;5078485;28;20426;-69
2022/05/12 09:14:16;;;;;;;4.65;1.50;;;17.00;30.80;;;;;;5086890;28;20036;-69
2022/05/12 09:16:41;;;;;;;10.48;1.60;;;16.60;32.90;;;;;;5080115;28;20036;-69
2022/05/12 09:19:14;;;;;;;2.40;1.27;;;16.90;33.90;;;;;;5087411;28;20163;-70
2022/05/12 09:21:40;;;;;;;5.75;1.58;;;17.10;32.50;;;;;;5080996;28;20161;-69
2022/05/12 09:24:07;;;;;;;8.80;1.30;;;17.10;27.10;;;;;;5066300;28;20048;-69
2022/05/12 09:26:39;;;;;;;3.50;1.30;;;17.30;30.00;;;;;;5077214;28;20151;-70
2022/05/12 09:29:14;;;;;;;4.50;1.23;;;16.80;30.00;;;;;;5068006;28;20066;-70
2022/05/12 09:31:43;;;;;;;5.40;1.35;;;16.70;29.00;;;;;;5094081;28;20410;-70
2022/05/12 09:34:14;;;;;;;;;;;16.50;30.40;;;;;;5085540;28;20047;-70
2022/05/12 09:36:40;;;;;;;5.80;1.63;;;16.50;34.40;;;;;;5077689;28;20353;-70
2022/05/12 09:39:06;;;;;;;4.90;1.20;;;16.50;37.30;;;;;;5084330;28;20193;-69
2022/05/12 09:41:35;;;;;;;5.97;1.15;;;16.50;29.40;;;;;;5076528;28;20044;-70
2022/05/12 09:44:15;;;;;;;;;;;16.30;34.00;;;;;;5086794;28;20039;-70
2022/05/12 09:46:41;;;;;;;5.68;1.45;;;16.20;30.00;;;;;;5086006;28;19927;-70
2022/05/12 09:49:23;;;;;;;4.45;1.05;;;16.30;27.40;;;;;;5086722;28;20040;-70
2022/05/12 09:51:48;;;;;;;3.75;1.17;;;16.50;31.20;;;;;;5082011;28;20048;-70
2022/05/12 09:54:29;;;;;;;4.45;1.60;;;16.50;26.60;;;;;;5066167;28;20500;-70
2022/05/12 09:57:18;;;;;;;5.13;1.45;;;16.50;28.40;;;;;;5063859;28;20052;-69
2022/05/12 09:59:55;;;;;;;3.25;1.10;;;16.50;29.00;;;;;;5087131;28;20052;-69
2022/05/12 10:07:53;;;;;;;3.90;1.42;;;16.50;26.40;;;;;;5087235;28;20085;-70
2022/05/12 10:08:19;;;;;;;4.95;1.38;;;17.00;25.60;;;;;;5100068;28;20052;-70
2022/05/12 10:10:49;;;;;;;6.47;1.75;;;16.70;23.40;;;;;;5080328;28;20051;-69
2022/05/12 10:13:29;;;;;;;6.07;1.77;;;17.00;24.70;;;;;;5087499;28;20577;-69
2022/05/12 10:15:58;;;;;;;7.18;1.42;;;17.10;25.90;;;;;;5079813;28;20048;-69
2022/05/12 10:18:34;;;;;;;7.03;1.30;;;17.40;23.10;;;;;;5068118;28;20059;-69
2022/05/12 10:21:12;;;;;;;2.83;1.10;;;17.60;22.50;;;;;;5081829;28;20127;-70
2022/05/12 10:23:59;;;;;;;6.22;1.33;;;17.80;19.00;;;;;;5085291;28;20117;-70
2022/05/12 10:26:35;;;;;;;1.60;0.88;;;17.50;17.10;;;;;;5102108;28;20144;-70
2022/05/12 10:29:14;;;;;;;8.13;1.40;;;17.70;17.50;;;;;;5086640;28;20116;-69
2022/05/12 10:31:58;;;;;;;7.03;1.85;;;17.80;19.30;;;;;;5078020;28;20043;-70
2022/05/12 10:34:29;;;;;;;6.00;1.55;;;17.70;18.80;;;;;;5089167;28;20387;-70
2022/05/12 10:37:10;;;;;;;7.47;1.70;;;17.60;18.50;;;;;;5066302;28;20115;-70
2022/05/12 10:40:26;;;;;;;5.05;0.55;;;17.80;18.10;;;;;;5065339;28;20076;-70
2022/05/12 10:43:03;;;;;;;5.80;1.23;;;17.70;15.10;;;;;;5059078;28;20090;-67
2022/05/12 10:46:03;;;;;;;8.60;1.92;;;17.40;15.30;;;;;;5086985;28;20042;-71
2022/05/12 10:48:43;;;;;;;7.07;1.23;;;16.90;17.30;;;;;;5087190;28;20084;-70
2022/05/12 10:51:44;;;;;;;5.25;1.30;;;17.00;20.90;;;;;;5066020;28;20112;-70
2022/05/12 10:54:12;;;;;;;5.72;1.13;;;17.30;17.60;;;;;;5062786;28;20398;-71
2022/05/12 10:57:00;;;;;;;6.53;1.65;;;17.80;19.20;;;;;;5077430;28;20490;-70
2022/05/12 10:59:47;;;;;;;6.32;1.23;;;17.80;14.40;;;;;;5084735;28;20048;-69
2022/05/12 11:02:30;;;;;;;9.07;1.45;;;17.80;13.20;;;;;;5084684;28;20051;-70
2022/05/12 11:05:07;;;;;;;7.97;1.10;;;17.80;13.70;;;;;;5081200;28;20055;-69
2022/05/12 11:07:42;;;;;;;8.38;1.52;;;18.00;12.60;;;;;;5084787;28;20037;-70
2022/05/12 11:10:30;;;;;;;5.72;1.30;;;18.10;13.10;;;;;;5086946;28;20055;-70
2022/05/12 11:13:01;;;;;;;4.18;1.10;;;17.80;13.60;;;;;;5075707;28;20090;-70
2022/05/12 11:15:57;;;;;;;3.20;0.82;;;17.80;14.80;;;;;;5064563;28;20103;-70
2022/05/12 11:18:48;;;;;;;2.83;0.90;;;18.00;14.10;;;;;;5079477;28;20062;-70
2022/05/12 11:21:19;;;;;;;4.38;1.15;;;18.10;13.20;;;;;;5081269;28;20032;-70
2022/05/12 11:23:56;;;;;;;4.88;1.13;;;18.30;12.40;;;;;;5082996;28;20040;-70
2022/05/12 11:26:51;;;;;;;6.93;1.02;;;18.20;11.70;;;;;;5084195;28;20060;-69
2022/05/12 11:29:44;;;;;;;3.83;1.00;;;18.40;13.90;;;;;;5079770;28;20094;-69
2022/05/12 11:32:31;;;;;;;4.60;1.35;;;18.50;14.00;;;;;;5073284;28;20043;-70
2022/05/12 11:35:03;;;;;;;5.60;1.75;;;18.60;11.70;;;;;;5080799;28;20048;-69
2022/05/12 11:37:53;;;;;;;1.95;0.82;;;18.50;10.60;;;;;;5086074;28;20075;-69
2022/05/12 11:40:41;;;;;;;2.75;0.88;;;18.40;10.90;;;;;;5100875;28;20052;-69
2022/05/12 11:46:33;;;;;;;3.20;0.93;;;18.40;11.10;;;;;;5078733;28;20090;-69
2022/05/12 11:49:01;;;;;;;6.35;1.23;;;18.60;12.70;;;;;;5080010;28;20131;-70
2022/05/12 11:51:43;;;;;;;7.57;0.90;;;18.30;9.40;;;;;;5084449;28;20043;-69
2022/05/12 11:54:30;;;;;;;5.38;0.95;;;18.20;11.80;;;;;;5084312;28;20516;-70
2022/05/12 11:56:58;;;;;;;4.10;0.98;;;18.20;9.90;;;;;;5062946;28;20506;-70
2022/05/12 11:59:28;;;;;;;5.22;1.15;;;18.10;9.50;;;;;;5067089;28;20551;-71
2022/05/12 12:02:00;;;;;;;5.63;1.45;;;18.10;11.20;;;;;;5081959;28;20048;-70
2022/05/12 12:04:45;;;;;;;6.35;1.42;;;18.10;10.30;;;;;;5090928;28;20121;-69
2022/05/12 12:07:31;;;;;;;5.13;1.42;;;18.20;11.20;;;;;;5092313;28;20047;-70
2022/05/12 12:10:24;;;;;;;2.58;1.05;;;18.40;11.00;;;;;;5047631;28;20056;-70
2022/05/12 12:12:58;;;;;;;4.57;1.10;;;18.40;10.30;;;;;;5105191;27;20043;-70
2022/05/12 12:15:24;;;;;;;7.15;1.02;;;18.50;11.90;;;;;;5089370;28;20050;-70
2022/05/12 12:17:50;;;;;;;4.85;1.05;;;18.70;11.70;;;;;;5084731;28;20052;-70
2022/05/12 12:20:28;;;;;;;3.47;0.88;;;18.70;10.30;;;;;;5092026;28;20052;-70
2022/05/12 12:23:17;;;;;;;3.15;0.75;;;18.60;8.50;;;;;;5086540;28;20047;-69
2022/05/12 12:25:46;;;;;;;4.45;0.80;;;18.30;9.10;;;;;;5073239;28;20044;-69
2022/05/12 12:28:23;;;;;;;5.68;1.23;;;18.10;9.70;;;;;;5090621;28;20043;-70
2022/05/12 12:30:55;;;;;;;4.10;0.77;;;18.20;11.50;;;;;;5102130;28;20051;-70
2022/05/12 12:33:24;;;;;;;2.60;0.90;;;18.00;8.60;;;;;;5106715;28;20149;-70
2022/05/12 12:35:53;;;;;;;1.98;1.02;;;18.10;10.60;;;;;;5067983;28;20086;-70
2022/05/12 12:38:41;;;;;;;3.95;1.02;;;18.20;9.40;;;;;;5088825;28;20467;-69
2022/05/12 12:41:07;;;;;;;5.00;1.25;;;18.40;9.50;;;;;;5084826;28;20056;-71
2022/05/12 12:43:41;;;;;;;2.22;1.20;;;18.20;8.00;;;;;;5082509;28;20044;-70
2022/05/12 12:46:26;;;;;;;4.72;1.15;;;18.10;9.70;;;;;;5104742;27;20074;-70
2022/05/12 12:49:09;;;;;;;3.55;0.80;;;18.30;9.30;;;;;;5085403;28;20105;-69
2022/05/12 12:51:38;;;;;;;6.38;1.40;;;18.40;9.80;;;;;;5105570;27;20075;-70
2022/05/12 12:57:21;;;;;;;2.90;1.02;;;18.60;9.60;;;;;;5103295;27;20486;-69
2022/05/12 12:59:51;;;;;;;5.18;0.75;;;18.60;10.00;;;;;;5091040;28;20043;-70
2022/05/12 13:02:40;;;;;;;4.22;1.10;;;18.70;10.00;;;;;;5089274;28;20036;-70
2022/05/12 13:05:13;;;;;;;15.53;1.07;;;18.90;6.50;;;;;;5087233;28;20384;-71
2022/05/12 13:07:41;;;;;;;6.47;1.15;;;19.00;7.50;;;;;;5099145;28;20144;-70
2022/05/12 13:10:12;;;;;;;7.38;1.23;;;19.20;7.60;;;;;;5090793;28;20044;-69
2022/05/12 13:12:38;;;;;;;7.72;1.13;;;19.20;8.40;;;;;;5090183;28;20036;-70
2022/05/12 13:15:16;;;;;;;2.85;1.00;;;19.10;6.40;;;;;;5100720;28;20040;-70
2022/05/12 13:17:48;;;;;;;3.72;1.02;;;19.10;6.90;;;;;;5061479;28;20043;-71
2022/05/12 13:20:21;;;;;;;5.60;1.23;;;19.10;6.90;;;;;;5085437;28;20280;-71
2022/05/12 13:22:46;;;;;;;4.20;1.05;;;18.80;5.80;;;;;;5079601;28;20048;-70
2022/05/12 13:25:19;;;;;;;2.92;1.42;;;18.50;6.80;;;;;;5084774;28;20148;-70